Time;durP1;ratioP1;P1;durP2;ratioP2;P2;SDS_P1;SDS_P2;PMS_P1;PMS_P2;Temp;Humidity;BMP_temperature;BMP_pressure;BME280_temperature;BME280_humidity;BME280_pressure;Samples;Min_cycle;Max_cycle;Signal;HPM_P1;HPM_P2
2022/09/15 00:00:43;;;;;;;;;;;14.40;99.90;;;;;;5061359;28;20023;-66
2022/09/15 00:03:09;;;;;;;;;;;14.30;99.90;;;;;;5062337;28;20356;-65
2022/09/15 00:05:37;;;;;;;;;;;14.30;99.90;;;;;;5062611;28;20015;-65
2022/09/15 00:08:04;;;;;;;;;;;14.30;99.90;;;;;;5062550;28;20308;-64
2022/09/15 00:10:31;;;;;;;;;;;14.30;99.90;;;;;;5062230;28;19935;-66
2022/09/15 00:12:57;;;;;;;;;;;14.30;99.90;;;;;;5062490;28;19924;-64
2022/09/15 00:15:24;;;;;;;;;;;14.30;99.90;;;;;;5062820;28;19962;-65
2022/09/15 00:17:52;;;;;;;;;;;14.30;99.90;;;;;;5061660;28;19960;-65
2022/09/15 00:20:19;;;;;;;;;;;14.30;99.90;;;;;;5083658;28;20019;-65
2022/09/15 00:22:47;;;;;;;;;;;14.30;99.90;;;;;;5080254;28;20289;-65
2022/09/15 00:25:14;;;;;;;;;;;14.30;99.90;;;;;;5066618;28;19985;-65
2022/09/15 00:27:41;;;;;;;;;;;14.30;99.90;;;;;;5064710;28;20023;-65
2022/09/15 00:30:08;;;;;;;;;;;14.30;99.90;;;;;;5078381;28;19924;-64
2022/09/15 00:32:35;;;;;;;;;;;14.30;99.90;;;;;;5063792;28;20005;-66
2022/09/15 00:35:01;;;;;;;;;;;14.30;99.90;;;;;;5080737;28;20414;-65
2022/09/15 00:37:28;;;;;;;;;;;14.20;99.90;;;;;;5062136;28;20315;-65
2022/09/15 00:39:56;;;;;;;;;;;14.20;99.90;;;;;;5061765;28;20019;-65
2022/09/15 00:42:23;;;;;;;;;;;14.30;99.90;;;;;;5066242;28;19925;-65
2022/09/15 00:44:52;;;;;;;;;;;14.20;99.90;;;;;;5064689;28;19977;-65
2022/09/15 00:47:20;;;;;;;;;;;14.20;99.90;;;;;;5064775;28;19967;-66
2022/09/15 00:49:48;;;;;;;;;;;14.20;99.90;;;;;;5083868;28;20422;-65
2022/09/15 00:52:20;;;;;;;;;;;14.20;99.90;;;;;;5066541;28;19925;-65
2022/09/15 00:54:48;;;;;;;;;;;14.20;99.90;;;;;;5061662;28;19932;-65
2022/09/15 00:57:19;;;;;;;;;;;14.20;99.90;;;;;;5064422;28;19924;-63
2022/09/15 00:59:47;;;;;;;;;;;14.20;99.90;;;;;;5065278;28;19928;-66
2022/09/15 01:02:18;;;;;;;;;;;14.10;99.90;;;;;;5064296;28;19932;-65
2022/09/15 01:04:45;;;;;;;;;;;14.10;99.90;;;;;;5060141;28;19924;-66
2022/09/15 01:07:15;;;;;;;;;;;14.10;99.90;;;;;;5065200;28;20334;-65
2022/09/15 01:09:49;;;;;;;;;;;14.10;99.90;;;;;;5059131;28;19939;-66
2022/09/15 01:12:17;;;;;;;;;;;14.10;99.90;;;;;;5063401;28;19924;-65
2022/09/15 01:14:44;;;;;;;;;;;14.10;99.90;;;;;;5060617;28;19924;-66
2022/09/15 01:17:16;;;;;;;;;;;14.10;99.90;;;;;;5058811;28;19985;-66
2022/09/15 01:20:00;;;;;;;;;;;14.10;99.90;;;;;;5063476;28;20394;-65
2022/09/15 01:22:33;;;;;;;;;;;14.20;99.90;;;;;;5059841;28;20288;-65
2022/09/15 01:25:07;;;;;;;;;;;14.10;99.90;;;;;;5064631;28;19924;-65
2022/09/15 01:27:44;;;;;;;;;;;14.20;99.90;;;;;;5062007;28;19931;-65
2022/09/15 01:30:14;;;;;;;;;;;14.10;99.90;;;;;;5060779;28;19932;-65
2022/09/15 01:33:02;;;;;;;;;;;14.10;99.90;;;;;;5064174;28;19954;-65
2022/09/15 01:35:33;;;;;;;;;;;14.00;99.90;;;;;;5062897;28;19924;-65
2022/09/15 01:38:03;;;;;;;;;;;14.00;99.90;;;;;;5060840;28;19929;-66
2022/09/15 01:40:33;;;;;;;;;;;13.90;99.90;;;;;;5062659;28;19931;-66
2022/09/15 01:43:01;;;;;;;;;;;13.90;99.90;;;;;;5061968;28;19977;-63
2022/09/15 01:45:32;;;;;;;;;;;13.90;99.90;;;;;;5064555;28;19932;-64
2022/09/15 01:48:00;;;;;;;;;;;13.80;99.90;;;;;;5063610;28;19924;-65
2022/09/15 01:50:30;;;;;;;;;;;13.80;99.90;;;;;;5060854;28;19985;-65
2022/09/15 01:52:59;;;;;;;;;;;13.80;99.90;;;;;;5061825;28;19924;-65
2022/09/15 01:55:30;;;;;;;;;;;13.80;99.90;;;;;;5057912;28;20433;-65
2022/09/15 01:57:57;;;;;;;;;;;13.90;99.90;;;;;;5059139;28;19925;-66
2022/09/15 02:00:24;;;;;;;;;;;13.90;99.90;;;;;;5062284;28;20344;-64
2022/09/15 02:02:55;;;;;;;;;;;13.80;99.90;;;;;;5064508;28;19958;-65
2022/09/15 02:05:24;;;;;;;;;;;13.80;99.90;;;;;;5065178;28;20428;-65
2022/09/15 02:07:51;;;;;;;;;;;13.80;99.90;;;;;;5060717;28;19925;-66
2022/09/15 02:10:21;;;;;;;;;;;13.70;99.90;;;;;;5061419;28;20355;-65
2022/09/15 02:12:53;;;;;;;;;;;13.60;99.90;;;;;;5060154;28;19959;-65
2022/09/15 02:15:24;;;;;;;;;;;13.60;99.90;;;;;;5059915;28;20372;-66
2022/09/15 02:17:53;;;;;;;;;;;13.50;99.90;;;;;;5060048;28;19924;-65
2022/09/15 02:20:22;;;;;;;;;;;13.40;99.90;;;;;;5057479;28;20410;-65
2022/09/15 02:22:52;;;;;;;;;;;13.30;99.90;;;;;;5063244;28;20403;-64
2022/09/15 02:25:22;;;;;;;;;;;13.30;99.90;;;;;;5065132;28;19971;-64
2022/09/15 02:27:51;;;;;;;;;;;13.20;99.90;;;;;;5062752;28;19932;-65
2022/09/15 02:30:18;;;;;;;;;;;13.20;99.90;;;;;;5058478;28;19932;-65
2022/09/15 02:32:47;;;;;;;;;;;13.10;99.90;;;;;;5060410;28;19931;-65
2022/09/15 02:35:16;;;;;;;;;;;13.00;99.90;;;;;;5056068;28;19924;-64
2022/09/15 02:37:44;;;;;;;;;;;13.00;99.90;;;;;;5056424;28;19925;-65
2022/09/15 02:40:11;;;;;;;;;;;12.90;99.90;;;;;;5061588;28;19931;-64
2022/09/15 02:42:38;;;;;;;;;;;12.90;99.90;;;;;;5059072;28;19925;-64
2022/09/15 02:45:06;;;;;;;;;;;12.90;99.90;;;;;;5057256;28;20027;-65
2022/09/15 02:47:32;;;;;;;;;;;12.90;99.90;;;;;;5063995;28;20008;-65
2022/09/15 02:49:59;;;;;;;;;;;12.80;99.90;;;;;;5063628;28;19925;-65
2022/09/15 02:52:28;;;;;;;;;;;12.80;99.90;;;;;;5066891;28;20414;-65
2022/09/15 02:54:54;;;;;;;;;;;12.80;99.90;;;;;;5056822;28;20394;-65
2022/09/15 02:57:21;;;;;;;;;;;12.80;99.90;;;;;;5067814;28;19932;-65
2022/09/15 03:02:35;;;;;;;;;;;12.80;99.90;;;;;;5058659;28;19920;-65
2022/09/15 03:05:01;;;;;;;;;;;12.90;99.90;;;;;;5063138;28;20022;-65
2022/09/15 03:07:30;;;;;;;;;;;12.80;99.90;;;;;;5048021;28;19924;-65
2022/09/15 03:09:57;;;;;;;;;;;12.80;99.90;;;;;;5062962;28;19924;-66
2022/09/15 03:12:24;;;;;;;;;;;12.80;99.90;;;;;;5067139;28;20305;-65
2022/09/15 03:14:51;;;;;;;;;;;12.70;99.90;;;;;;5051441;28;19924;-65
2022/09/15 03:17:18;;;;;;;;;;;12.70;99.90;;;;;;5060065;28;20365;-65
2022/09/15 03:19:45;;;;;;;;;;;12.60;99.90;;;;;;5060937;28;19924;-65
2022/09/15 03:22:11;;;;;;;;;;;12.60;99.90;;;;;;5066601;28;19929;-63
2022/09/15 03:24:41;;;;;;;;;;;12.60;99.90;;;;;;5060972;28;20309;-66
2022/09/15 03:27:08;;;;;;;;;;;12.50;99.90;;;;;;5062298;28;19994;-64
2022/09/15 03:29:35;;;;;;;;;;;12.50;99.90;;;;;;5062991;28;19924;-65
2022/09/15 03:32:02;;;;;;;;;;;12.40;99.90;;;;;;5064375;28;19936;-64
2022/09/15 03:34:28;;;;;;;;;;;12.40;99.90;;;;;;5067613;28;19985;-65
2022/09/15 03:36:55;;;;;;;;;;;12.40;99.90;;;;;;5064756;28;19933;-65
2022/09/15 03:39:22;;;;;;;;;;;12.30;99.90;;;;;;5061732;28;19935;-63
2022/09/15 03:41:50;;;;;;;;;;;12.30;99.90;;;;;;5064743;28;19924;-65
2022/09/15 03:44:17;;;;;;;;;;;12.30;99.90;;;;;;5063431;28;20011;-65
2022/09/15 03:46:44;;;;;;;;;;;12.30;99.90;;;;;;5067264;28;19981;-65
2022/09/15 03:49:10;;;;;;;;;;;12.30;99.90;;;;;;5064421;28;19939;-66
2022/09/15 03:51:37;;;;;;;;;;;12.30;99.90;;;;;;5057364;28;19940;-65
2022/09/15 03:54:04;;;;;;;;;;;12.20;99.90;;;;;;5055728;28;19954;-64
2022/09/15 03:56:31;;;;;;;;;;;12.20;99.90;;;;;;5075984;28;20416;-66
2022/09/15 03:59:00;;;;;;;;;;;12.20;99.90;;;;;;5061756;28;19931;-65
2022/09/15 04:01:27;;;;;;;;;;;12.30;99.90;;;;;;5056029;28;19964;-65
2022/09/15 04:03:54;;;;;;;;;;;12.30;99.90;;;;;;5049679;28;19970;-66
2022/09/15 04:06:22;;;;;;;;;;;12.30;99.90;;;;;;5053448;28;20091;-64
2022/09/15 04:08:49;;;;;;;;;;;12.40;99.90;;;;;;5056422;28;19924;-64
2022/09/15 04:11:16;;;;;;;;;;;12.40;99.90;;;;;;5056967;28;19970;-65
2022/09/15 04:13:43;;;;;;;;;;;12.40;99.90;;;;;;5054954;28;19924;-64
2022/09/15 04:16:13;;;;;;;;;;;12.50;99.90;;;;;;5060834;28;19924;-65
2022/09/15 04:18:40;;;;;;;;;;;12.50;99.90;;;;;;5054391;28;20403;-66
2022/09/15 04:21:08;;;;;;;;;;;12.50;99.90;;;;;;5060489;28;19943;-66
2022/09/15 04:23:36;;;;;;;;;;;12.50;99.90;;;;;;5059782;28;19927;-64
2022/09/15 04:26:04;;;;;;;;;;;12.50;99.90;;;;;;5060435;28;19928;-65
2022/09/15 04:28:32;;;;;;;;;;;12.50;99.90;;;;;;5058360;28;19924;-65
2022/09/15 04:31:03;;;;;;;;;;;12.50;99.90;;;;;;5065966;28;19924;-66
2022/09/15 04:33:31;;;;;;;;;;;12.50;99.90;;;;;;5059453;28;19978;-65
2022/09/15 04:35:58;;;;;;;;;;;12.50;99.90;;;;;;5052597;28;19975;-64
2022/09/15 04:38:25;;;;;;;;;;;12.50;99.90;;;;;;5063207;28;19970;-66
2022/09/15 04:40:52;;;;;;;;;;;12.50;99.90;;;;;;5056828;28;20351;-65
2022/09/15 04:43:19;;;;;;;;;;;12.60;99.90;;;;;;5062810;28;19925;-80
2022/09/15 04:45:46;;;;;;;;;;;12.60;99.90;;;;;;5062429;28;19931;-66
2022/09/15 04:48:12;;;;;;;;;;;12.60;99.90;;;;;;5064196;28;19956;-66
2022/09/15 04:50:40;;;;;;;;;;;12.60;99.90;;;;;;5062934;28;19970;-65
2022/09/15 04:53:07;;;;;;;;;;;12.70;99.90;;;;;;5059415;28;19924;-65
2022/09/15 04:55:34;;;;;;;;;;;12.70;99.90;;;;;;5062405;28;20411;-65
2022/09/15 04:58:01;;;;;;;;;;;12.70;99.90;;;;;;5059957;28;19954;-65
2022/09/15 05:00:28;;;;;;;;;;;12.70;99.90;;;;;;5060631;28;20045;-65
2022/09/15 05:02:55;;;;;;;;;;;12.70;99.90;;;;;;5037823;28;19970;-65
2022/09/15 05:05:22;;;;;;;;;;;12.80;99.90;;;;;;5048396;28;19928;-71
2022/09/15 05:07:52;;;;;;;;;;;12.70;99.90;;;;;;5046836;28;21969;-65
2022/09/15 05:10:20;;;;;;;;;;;12.80;99.90;;;;;;5057630;28;19931;-65
2022/09/15 05:12:46;;;;;;;;;;;12.80;99.90;;;;;;5060931;28;19931;-65
2022/09/15 05:15:13;;;;;;;;;;;12.90;99.90;;;;;;5053307;28;19944;-66
2022/09/15 05:17:40;;;;;;;;;;;12.90;99.90;;;;;;5051484;28;19970;-65
2022/09/15 05:20:07;;;;;;;;;;;12.90;99.90;;;;;;5056306;28;19947;-65
2022/09/15 05:22:34;;;;;;;;;;;12.90;99.90;;;;;;5056336;28;19924;-67
2022/09/15 05:25:02;;;;;;;;;;;13.00;99.90;;;;;;5059533;28;19924;-65
2022/09/15 05:27:30;;;;;;;;;;;13.00;99.90;;;;;;5051745;28;19928;-65
2022/09/15 05:29:57;;;;;;;;;;;13.10;99.90;;;;;;5063683;28;19924;-66
2022/09/15 05:32:23;;;;;;;;;;;13.10;99.90;;;;;;5039359;28;19925;-66
2022/09/15 05:34:50;;;;;;;;;;;13.10;99.90;;;;;;5047255;28;19924;-66
2022/09/15 05:37:17;;;;;;;;;;;13.10;99.90;;;;;;5042177;28;20362;-66
2022/09/15 05:39:44;;;;;;;;;;;13.20;99.90;;;;;;5044372;28;19978;-65
2022/09/15 05:42:12;;;;;;;;;;;13.20;99.90;;;;;;5054043;28;19977;-67
2022/09/15 05:44:39;;;;;;;;;;;13.20;99.90;;;;;;5050265;28;19928;-66
2022/09/15 05:47:05;;;;;;;;;;;13.20;99.90;;;;;;5053561;28;19924;-65
2022/09/15 05:49:32;;;;;;;;;;;13.10;99.90;;;;;;5050218;28;19968;-64
2022/09/15 05:51:59;;;;;;;;;;;13.10;99.90;;;;;;5046372;28;19924;-66
2022/09/15 05:54:27;;;;;;;;;;;13.20;99.90;;;;;;5050930;28;20346;-65
2022/09/15 05:56:54;;;;;;;;;;;13.10;99.90;;;;;;5039864;28;20316;-65
2022/09/15 05:59:22;;;;;;;;;;;13.20;99.90;;;;;;5049726;28;19974;-65
2022/09/15 06:01:49;;;;;;;;;;;13.20;99.90;;;;;;5046350;28;19969;-65
2022/09/15 06:04:16;;;;;;;;;;;13.30;99.90;;;;;;5050927;28;19925;-64
2022/09/15 06:06:43;;;;;;;;;;;13.30;99.90;;;;;;5048029;28;19963;-64
2022/09/15 06:09:10;;;;;;;;;;;13.30;99.90;;;;;;5048762;28;19925;-65
2022/09/15 06:11:37;;;;;;;;;;;13.30;99.90;;;;;;5048960;28;19932;-65
2022/09/15 06:14:04;;;;;;;;;;;13.40;99.90;;;;;;5056997;28;19946;-64
2022/09/15 06:16:34;;;;;;;;;;;13.50;99.90;;;;;;5046570;28;19925;-64
2022/09/15 06:19:01;;;;;;;;;;;13.60;99.90;;;;;;5047470;28;19925;-66
2022/09/15 06:21:29;;;;;;;;;;;13.60;99.90;;;;;;5054805;28;19978;-65
2022/09/15 06:23:56;;;;;;;;;;;13.70;99.90;;;;;;5058945;28;19932;-65
2022/09/15 06:26:23;;;;;;;;;;;13.80;99.90;;;;;;5061340;28;19924;-66
2022/09/15 06:28:51;;;;;;;;;;;13.90;99.90;;;;;;5053468;28;19977;-64
2022/09/15 06:31:18;;;;;;;;;;;14.00;99.90;;;;;;5056110;28;19955;-66
2022/09/15 06:33:47;;;;;;;;;;;14.00;99.90;;;;;;5049513;28;19924;-64
2022/09/15 06:36:15;;;;;;;;;;;14.10;99.90;;;;;;5059246;28;19927;-63
2022/09/15 06:38:42;;;;;;;;;;;14.20;99.90;;;;;;5048294;28;19925;-66
2022/09/15 06:41:10;;;;;;;;;;;14.20;99.90;;;;;;5048823;28;19947;-66
2022/09/15 06:43:37;;;;;;;;;;;14.30;99.90;;;;;;5054691;28;19925;-65
2022/09/15 06:46:04;;;;;;;;;;;14.30;99.90;;;;;;5057978;28;20041;-65
2022/09/15 06:48:32;;;;;;;;;;;14.30;99.90;;;;;;5053534;28;20441;-65
2022/09/15 06:51:00;;;;;;;;;;;14.30;99.90;;;;;;5054243;28;20039;-66
2022/09/15 06:53:28;;;;;;;;;;;14.40;99.90;;;;;;5055406;28;19932;-65
2022/09/15 06:55:55;;;;;;;;;;;14.40;99.90;;;;;;5059500;28;19924;-67
2022/09/15 06:58:22;;;;;;;;;;;14.50;99.90;;;;;;5054684;28;20337;-65
2022/09/15 07:00:48;;;;;;;;;;;14.40;99.90;;;;;;5054774;28;19928;-67
2022/09/15 07:03:15;;;;;;;;;;;14.40;99.90;;;;;;5047324;28;19928;-65
2022/09/15 07:05:43;;;;;;;;;;;14.50;99.90;;;;;;5056864;28;19947;-66
2022/09/15 07:08:12;;;;;;;;;;;14.60;99.90;;;;;;5048896;28;19925;-65
2022/09/15 07:10:38;;;;;;;;;;;14.60;99.90;;;;;;5050613;28;19929;-65
2022/09/15 07:13:05;;;;;;;;;;;14.60;99.90;;;;;;5061275;28;19978;-65
2022/09/15 07:15:32;;;;;;;;;;;14.60;99.90;;;;;;5055327;28;19929;-63
2022/09/15 07:17:59;;;;;;;;;;;14.60;99.90;;;;;;5055253;28;19924;-66
2022/09/15 07:20:26;;;;;;;;;;;14.60;99.90;;;;;;5056917;28;19928;-65
2022/09/15 07:22:53;;;;;;;;;;;14.70;99.90;;;;;;5055730;28;20011;-66
2022/09/15 07:25:21;;;;;;;;;;;14.80;99.90;;;;;;5058271;28;20143;-66
2022/09/15 07:27:48;;;;;;;;;;;14.80;99.90;;;;;;5052514;28;19923;-66
2022/09/15 07:30:15;;;;;;;;;;;14.90;99.90;;;;;;5055437;28;19928;-65
2022/09/15 07:32:42;;;;;;;;;;;15.00;99.90;;;;;;5057871;28;19974;-65
2022/09/15 07:35:09;;;;;;;;;;;15.10;99.90;;;;;;5056248;28;19928;-65
2022/09/15 07:37:36;;;;;;;;;;;15.00;99.90;;;;;;5057949;28;19928;-66
2022/09/15 07:40:03;;;;;;;;;;;15.10;99.90;;;;;;5063548;28;19925;-65
2022/09/15 07:42:32;;;;;;;;;;;15.20;99.90;;;;;;5059381;28;19932;-65
2022/09/15 07:44:58;;;;;;;;;;;15.30;99.90;;;;;;5055087;28;19968;-65
2022/09/15 07:47:25;;;;;;;;;;;15.40;99.90;;;;;;5052055;28;19924;-66
2022/09/15 07:49:52;;;;;;;;;;;15.50;99.90;;;;;;5053468;28;19924;-64
2022/09/15 07:52:18;;;;;;;;;;;15.50;99.90;;;;;;5071689;28;19985;-65
2022/09/15 07:54:45;;;;;;;;;;;15.60;99.90;;;;;;5053531;28;19963;-69
2022/09/15 07:57:12;;;;;;;;;;;15.70;99.90;;;;;;5052458;28;19929;-66
2022/09/15 07:59:40;;;;;;;;;;;15.70;99.90;;;;;;5055797;28;19932;-65
2022/09/15 08:02:09;;;;;;;;;;;15.70;99.90;;;;;;5055292;28;19931;-68
2022/09/15 08:04:36;;;;;;;;;;;15.60;99.90;;;;;;5052496;28;19928;-66
2022/09/15 08:07:03;;;;;;;;;;;15.70;99.90;;;;;;5053109;28;19970;-65
2022/09/15 08:09:30;;;;;;;;;;;15.70;99.90;;;;;;5050936;28;20295;-64
2022/09/15 08:11:56;;;;;;;;;;;15.70;99.90;;;;;;5066709;28;19970;-66
2022/09/15 08:14:23;;;;;;;;;;;15.70;99.90;;;;;;5058893;28;20351;-64
2022/09/15 08:16:51;;;;;;;;;;;15.80;99.90;;;;;;5062826;28;19931;-66
2022/09/15 08:19:19;;;;;;;;;;;15.80;99.90;;;;;;5062223;28;19932;-65
2022/09/15 08:21:46;;;;;;;;;;;15.80;99.90;;;;;;5057503;28;19929;-64
2022/09/15 08:24:13;;;;;;;;;;;15.80;99.90;;;;;;5058539;28;19978;-65
2022/09/15 08:26:41;;;;;;;;;;;15.80;99.90;;;;;;5063625;28;19925;-66
2022/09/15 08:29:08;;;;;;;;;;;15.90;99.90;;;;;;5064350;28;19930;-65
2022/09/15 08:31:34;;;;;;;;;;;16.00;99.90;;;;;;5061706;28;19924;-65
2022/09/15 08:34:05;;;;;;;;;;;16.10;99.90;;;;;;5066049;28;19929;-66
2022/09/15 08:36:32;;;;;;;;;;;16.00;99.90;;;;;;5065109;28;20314;-64
2022/09/15 08:38:59;;;;;;;;;;;15.90;99.90;;;;;;5057576;28;19931;-65
2022/09/15 08:41:28;;;;;;;;;;;15.90;99.90;;;;;;5066150;28;19924;-65
2022/09/15 08:43:58;;;;;;;;;;;15.80;99.90;;;;;;5062915;28;19931;-65
2022/09/15 08:46:27;;;;;;;;;;;15.80;99.90;;;;;;5055245;28;20300;-65
2022/09/15 08:48:57;;;;;;;;;;;15.90;99.90;;;;;;5055500;28;20003;-65
2022/09/15 08:51:30;;;;;;;;;;;15.80;99.90;;;;;;5058089;28;19932;-65
2022/09/15 08:54:00;;;;;;;;;;;15.80;99.90;;;;;;5059889;28;19924;-66
2022/09/15 08:56:28;;;;;;;;;;;16.00;99.90;;;;;;5062155;28;19924;-65
2022/09/15 08:58:55;;;;;;;;;;;16.40;99.90;;;;;;5062043;28;19924;-65
2022/09/15 09:01:27;;;;;;;;;;;16.60;99.90;;;;;;5065165;28;19989;-65
2022/09/15 09:04:00;;;;;;;;;;;16.90;99.90;;;;;;5056528;28;19928;-65
2022/09/15 09:06:32;;;;;;;;;;;17.30;99.90;;;;;;5058898;28;19925;-65
2022/09/15 09:09:11;;;;;;;;;;;17.50;99.90;;;;;;5060462;28;19925;-66
2022/09/15 09:11:47;;;;;;;;;;;17.30;99.90;;;;;;5059391;28;19935;-66
2022/09/15 09:14:19;;;;;;;;;;;17.30;99.90;;;;;;5058411;28;19978;-65
2022/09/15 09:16:51;;;;;;;;;;;17.30;99.90;;;;;;5047044;28;19925;-65
2022/09/15 09:19:25;;;;;;;;;;;17.50;99.90;;;;;;5062248;28;19985;-66
2022/09/15 09:21:54;;;;;;;;;;;17.70;99.90;;;;;;5053946;28;19928;-65
2022/09/15 09:24:26;;;;;;;;;;;17.70;99.90;;;;;;5050698;28;19932;-66
2022/09/15 09:26:54;;;;;;;;;;;17.80;99.90;;;;;;5064396;28;19963;-65
2022/09/15 09:29:25;;;;;;;;;;;17.90;99.90;;;;;;5055951;28;19977;-65
2022/09/15 09:31:53;;;;;;;;;;;18.10;99.90;;;;;;5059388;28;19924;-65
2022/09/15 09:34:22;;;;;;;;;;;17.90;99.90;;;;;;5060005;28;19949;-66
2022/09/15 09:36:55;;;;;;;;;;;17.90;99.90;;;;;;5059353;28;19924;-65
2022/09/15 09:39:21;;;;;;;;;;;17.90;99.90;;;;;;5055412;28;20391;-65
2022/09/15 09:41:49;;;;;;;;;;;18.00;99.90;;;;;;5058752;28;19925;-65
2022/09/15 09:44:18;;;;;;;;;;;18.20;99.90;;;;;;5055225;28;19933;-65
2022/09/15 09:46:45;;;;;;;;;;;18.50;99.90;;;;;;5062201;28;19924;-65
2022/09/15 09:49:15;;;;;;;;;;;18.40;99.90;;;;;;5056293;28;20423;-66
2022/09/15 09:51:50;;;;;;;;;;;18.30;99.90;;;;;;5062448;28;20316;-65
2022/09/15 09:54:19;;;;;;;;;;;18.20;99.90;;;;;;5054767;28;20089;-65
2022/09/15 09:56:46;;;;;;;;;;;18.10;99.90;;;;;;5066266;28;20394;-65
2022/09/15 09:59:33;;;;;;;;;;;18.00;99.90;;;;;;5059750;28;20392;-65
2022/09/15 10:02:14;;;;;;;;;;;18.10;99.90;;;;;;5052047;28;19930;-65
2022/09/15 10:04:41;;;;;;;;;;;17.80;99.90;;;;;;5059155;28;19924;-66
2022/09/15 10:07:08;;;;;;;;;;;17.80;99.90;;;;;;5062892;28;19931;-66
2022/09/15 10:09:37;;;;;;;;;;;18.00;99.90;;;;;;5061181;28;19962;-66
2022/09/15 10:12:05;;;;;;;;;;;17.90;99.90;;;;;;5051537;28;19931;-65
2022/09/15 10:14:33;;;;;;;;;;;18.00;99.90;;;;;;5060973;28;19932;-65
2022/09/15 10:17:01;;;;;;;;;;;18.00;99.90;;;;;;5059368;28;19931;-65
2022/09/15 10:19:29;;;;;;;;;;;18.10;99.90;;;;;;5058697;28;19932;-66
2022/09/15 10:21:56;;;;;;;;;;;18.30;99.90;;;;;;5047618;28;19973;-66
2022/09/15 10:24:24;;;;;;;;;;;18.40;99.90;;;;;;5052936;28;19924;-65
2022/09/15 10:27:05;;;;;;;;;;;18.10;99.90;;;;;;5052861;28;19927;-65
2022/09/15 10:29:36;;;;;;;;;;;17.90;99.90;;;;;;5057953;28;20464;-65
2022/09/15 10:32:15;;;;;;;;;;;18.10;99.90;;;;;;5055956;28;19924;-65
2022/09/15 10:34:42;;;;;;;;;;;18.30;99.90;;;;;;5055074;28;19924;-65
2022/09/15 10:37:15;;;;;;;;;;;18.60;99.90;;;;;;5053483;28;20032;-65
2022/09/15 10:39:52;;;;;;;;;;;19.00;99.90;;;;;;5051048;28;19931;-65
2022/09/15 10:42:25;;;;;;;;;;;19.30;99.90;;;;;;5058576;28;19924;-64
2022/09/15 10:44:57;;;;;;;;;;;19.10;99.90;;;;;;5063875;28;19924;-65
2022/09/15 10:47:31;;;;;;;;;;;18.90;99.90;;;;;;5051804;28;19952;-65
2022/09/15 10:50:06;;;;;;;;;;;19.40;99.90;;;;;;5063026;28;19932;-66
2022/09/15 10:52:39;;;;;;;;;;;20.00;99.90;;;;;;5055215;28;19924;-65
2022/09/15 10:55:13;;;;;;;;;;;20.50;99.90;;;;;;5056067;28;19935;-67
2022/09/15 10:57:50;;;;;;;;;;;20.70;99.90;;;;;;5055983;28;19924;-66
2022/09/15 11:00:21;;;;;;;;;;;20.80;99.90;;;;;;5055430;28;20385;-65
2022/09/15 11:03:15;;;;;;;;;;;21.00;99.90;;;;;;5052947;28;19928;-66
2022/09/15 11:05:50;;;;;;;;;;;20.90;99.90;;;;;;5013137;28;19931;-65
2022/09/15 11:08:30;;;;;;;;;;;20.40;99.90;;;;;;5058494;28;19932;-66
2022/09/15 11:11:03;;;;;;;;;;;20.20;99.90;;;;;;5053059;28;19928;-67
2022/09/15 11:13:38;;;;;;;;;;;20.10;99.90;;;;;;5053542;28;20346;-66
2022/09/15 11:16:10;;;;;;;;;;;20.00;99.90;;;;;;5066611;28;20391;-65
2022/09/15 11:18:50;;;;;;;;;;;19.90;99.90;;;;;;5059314;28;19932;-66
2022/09/15 11:21:20;;;;;;;;;;;19.70;99.90;;;;;;5060961;28;19928;-65
2022/09/15 11:23:51;;;;;;;;;;;19.90;99.90;;;;;;5063508;28;19932;-68
2022/09/15 11:26:20;;;;;;;;;;;20.00;99.90;;;;;;5059673;28;19936;-66
2022/09/15 11:28:52;;;;;;;;;;;20.20;99.90;;;;;;5061625;28;19932;-66
2022/09/15 11:31:21;;;;;;;;;;;20.60;99.90;;;;;;5067284;28;20023;-66
2022/09/15 11:33:50;;;;;;;;;;;20.80;99.90;;;;;;5047932;28;19929;-67
2022/09/15 11:36:18;;;;;;;;;;;21.20;99.90;;;;;;5060654;28;19970;-66
2022/09/15 11:38:48;;;;;;;;;;;21.60;99.90;;;;;;5056336;28;19924;-65
2022/09/15 11:41:26;;;;;;;;;;;21.40;99.90;;;;;;5063896;28;19924;-66
2022/09/15 11:44:06;;;;;;;;;;;21.40;99.90;;;;;;5052814;28;20372;-67
2022/09/15 11:46:39;;;;;;;;;;;22.20;99.90;;;;;;5061528;28;19930;-67
2022/09/15 11:49:07;;;;;;;;;;;22.00;99.90;;;;;;5059570;28;19925;-65
2022/09/15 11:51:36;;;;;;;;;;;21.30;99.90;;;;;;5061367;28;20007;-65
2022/09/15 11:54:07;;;;;;;;;;;20.60;99.90;;;;;;5053402;28;19929;-66
2022/09/15 11:56:36;;;;;;;;;;;20.50;99.90;;;;;;5061956;28;20319;-66
2022/09/15 11:59:10;;;;;;;;;;;20.60;99.90;;;;;;5063997;28;20346;-66
2022/09/15 12:01:41;;;;;;;;;;;20.40;99.90;;;;;;5059672;28;19932;-65
2022/09/15 12:04:09;;;;;;;;;;;20.10;99.90;;;;;;5059359;28;20419;-70
2022/09/15 12:06:39;;;;;;;;;;;19.90;99.90;;;;;;5062951;28;20340;-65
2022/09/15 12:09:06;;;;;;;;;;;19.80;99.90;;;;;;5058349;28;19924;-67
2022/09/15 12:11:35;;;;;;;;;;;19.70;99.90;;;;;;5046609;28;19931;-66
2022/09/15 12:14:02;;;;;;;;;;;19.70;99.90;;;;;;5064552;28;19974;-65
2022/09/15 12:16:31;;;;;;;;;;;19.30;99.90;;;;;;5060644;28;19931;-65
2022/09/15 12:18:59;;;;;;;;;;;19.20;99.90;;;;;;5063438;28;20177;-66
2022/09/15 12:21:32;;;;;;;;;;;18.90;99.90;;;;;;5062612;28;19924;-68
2022/09/15 12:24:01;;;;;;;;;;;18.80;99.90;;;;;;5060127;28;19932;-65
2022/09/15 12:26:28;;;;;;;;;;;18.80;99.90;;;;;;5064857;28;19928;-65
2022/09/15 12:28:56;;;;;;;;;;;19.00;99.90;;;;;;5065510;28;19929;-67
2022/09/15 12:31:35;;;;;;;;;;;19.00;99.90;;;;;;5060647;28;19928;-66
2022/09/15 12:34:04;;;;;;;;;;;19.00;99.90;;;;;;5056015;28;19928;-65
2022/09/15 12:36:32;;;;;;;;;;;19.40;99.90;;;;;;5061999;28;19925;-65
2022/09/15 12:39:00;;;;;;;;;;;19.40;99.90;;;;;;5062210;28;20406;-67
2022/09/15 12:41:27;;;;;;;;;;;19.40;99.90;;;;;;5065964;28;19946;-66
2022/09/15 12:43:54;;;;;;;;;;;19.10;99.90;;;;;;5059535;28;19929;-64
2022/09/15 12:46:21;;;;;;;;;;;18.90;99.90;;;;;;5062461;28;19928;-65
2022/09/15 12:48:50;;;;;;;;;;;18.80;99.90;;;;;;5063755;28;20454;-65
2022/09/15 12:51:22;;;;;;;;;;;18.60;99.90;;;;;;5065093;28;19925;-66
2022/09/15 12:53:50;;;;;;;;;;;18.50;99.90;;;;;;5062245;28;19928;-66
2022/09/15 12:56:22;;;;;;;;;;;18.40;99.90;;;;;;5062858;28;19932;-65
2022/09/15 12:58:49;;;;;;;;;;;18.30;99.90;;;;;;5061689;28;20337;-68
2022/09/15 13:01:35;;;;;;;;;;;18.20;99.90;;;;;;5065241;28;19924;-67
2022/09/15 13:04:23;;;;;;;;;;;18.20;99.90;;;;;;5058509;28;19928;-64
2022/09/15 13:07:05;;;;;;;;;;;18.30;99.90;;;;;;5061484;28;19967;-65
2022/09/15 13:09:42;;;;;;;;;;;18.20;99.90;;;;;;5053206;28;19925;-66
2022/09/15 13:12:10;;;;;;;;;;;18.20;99.90;;;;;;5058429;28;20314;-66
2022/09/15 13:14:40;;;;;;;;;;;18.10;99.90;;;;;;5055524;28;19986;-65
2022/09/15 13:17:13;;;;;;;;;;;18.20;99.90;;;;;;5061780;28;20016;-66
2022/09/15 13:19:45;;;;;;;;;;;18.20;99.90;;;;;;5064776;28;19924;-66
2022/09/15 13:22:19;;;;;;;;;;;18.20;99.90;;;;;;5063912;28;19939;-67
2022/09/15 13:24:47;;;;;;;;;;;18.10;99.90;;;;;;5058888;28;19967;-66
2022/09/15 13:27:14;;;;;;;;;;;18.10;99.90;;;;;;5064196;28;19924;-66
2022/09/15 13:29:46;;;;;;;;;;;18.10;99.90;;;;;;5055939;28;19931;-65
2022/09/15 13:32:27;;;;;;;;;;;18.00;99.90;;;;;;5065037;28;19928;-65
2022/09/15 13:35:08;;;;;;;;;;;18.00;99.90;;;;;;5057350;28;19925;-63
2022/09/15 13:37:41;;;;;;;;;;;18.00;99.90;;;;;;5057487;28;20395;-65
2022/09/15 13:40:25;;;;;;;;;;;17.90;99.90;;;;;;5062212;28;19928;-65
2022/09/15 13:43:01;;;;;;;;;;;18.00;99.90;;;;;;5061844;28;19924;-65
2022/09/15 13:45:44;;;;;;;;;;;17.80;99.90;;;;;;5058175;28;19939;-65
2022/09/15 13:48:21;;;;;;;;;;;17.70;99.90;;;;;;5060982;28;19947;-65
2022/09/15 13:50:55;;;;;;;;;;;17.40;99.90;;;;;;5061842;28;19924;-65
2022/09/15 13:53:36;;;;;;;;;;;17.10;99.90;;;;;;5057370;28;19994;-66
2022/09/15 13:56:05;;;;;;;;;;;16.80;99.90;;;;;;5076520;28;19935;-65
2022/09/15 13:58:33;;;;;;;;;;;16.70;99.90;;;;;;5064980;28;19931;-66
2022/09/15 14:01:00;;;;;;;;;;;16.90;99.90;;;;;;5064073;28;19932;-65
2022/09/15 14:03:35;;;;;;;;;;;17.00;99.90;;;;;;5063286;28;19931;-67
2022/09/15 14:06:10;;;;;;;;;;;16.90;99.90;;;;;;5061501;28;19974;-65
2022/09/15 14:08:37;;;;;;;;;;;16.90;99.90;;;;;;5059290;28;19924;-64
2022/09/15 14:11:07;;;;;;;;;;;16.80;99.90;;;;;;5060651;28;20353;-67
2022/09/15 14:13:35;;;;;;;;;;;16.80;99.90;;;;;;5065442;28;19924;-66
2022/09/15 14:16:03;;;;;;;;;;;16.80;99.90;;;;;;5059936;28;19925;-62
2022/09/15 14:18:31;;;;;;;;;;;16.70;99.90;;;;;;5059415;28;20035;-66
2022/09/15 14:20:59;;;;;;;;;;;16.70;99.90;;;;;;5063546;28;19989;-69
2022/09/15 14:23:28;;;;;;;;;;;16.60;99.90;;;;;;5056986;28;20010;-63
2022/09/15 14:25:55;;;;;;;;;;;16.50;99.90;;;;;;5052964;28;19932;-66
2022/09/15 14:28:27;;;;;;;;;;;16.50;99.90;;;;;;5059550;28;19925;-66
2022/09/15 14:30:54;;;;;;;;;;;16.40;99.90;;;;;;5048749;28;19925;-65